Terminal Aerodrome Forecast
Issued by NWS

Home | Current Version | Previous Version | Text Only | Print | Product List | Glossary On
Versions: 1 2 3 4 5 6 7 8 9 10 11 12 13 14 15 16
000
FTUS46 KLOX 311700 RRA
TAFOXR
TAF
KOXR 311740Z 3118/0118 VRB03KT P6SM SCT008
     FM312000 25006KT P6SM FEW008
     FM312200 27012KT P6SM SKC
     FM010500 VRB03KT P6SM SKC
     FM011200 VRB05KT 5SM BR OVC006
     FM011630 VRB05KT P6SM SCT008=

USA.gov is the U.S. government's official web portal to all federal, state and local government web resources and services.